createdAt,value
2018-03-23T00:02:02.641Z,45.57
2018-03-23T00:04:30.376Z,44.40
2018-03-23T00:06:57.980Z,52.30
2018-03-23T00:09:25.713Z,56.63
2018-03-23T00:11:53.850Z,52.50
2018-03-23T00:14:21.628Z,62.43
2018-03-23T00:16:49.406Z,46.57
2018-03-23T00:19:17.288Z,58.20
2018-03-23T00:21:44.962Z,51.97
2018-03-23T00:24:12.682Z,51.67
2018-03-23T00:26:40.827Z,51.93
2018-03-23T00:29:08.568Z,51.43
2018-03-23T00:31:36.274Z,41.13
2018-03-23T00:34:04.055Z,38.30
2018-03-23T00:36:31.834Z,39.87
2018-03-23T00:38:59.615Z,42.43
2018-03-23T00:41:27.478Z,43.43
2018-03-23T00:43:55.271Z,42.87
2018-03-23T00:46:23.032Z,49.03
2018-03-23T00:48:50.775Z,48.97
2018-03-23T00:51:18.501Z,51.47
2018-03-23T00:53:46.284Z,57.03
2018-03-23T00:56:14.163Z,51.37
2018-03-23T00:58:41.858Z,44.13
2018-03-23T01:01:09.721Z,52.83
2018-03-23T01:03:37.596Z,39.53
2018-03-23T01:06:05.271Z,46.07
2018-03-23T01:08:33.051Z,51.83
2018-03-23T01:11:00.727Z,50.93
2018-03-23T01:13:28.402Z,45.37
2018-03-23T01:15:56.231Z,57.53
2018-03-23T01:18:23.846Z,41.83
2018-03-23T01:20:51.528Z,45.83
2018-03-23T01:23:19.254Z,57.37
2018-03-23T01:25:47.093Z,47.53
2018-03-23T01:28:14.812Z,41.40
2018-03-23T01:30:42.644Z,49.50
2018-03-23T01:33:10.381Z,49.30
2018-03-23T01:35:38.197Z,56.67
2018-03-23T01:38:05.973Z,44.53
2018-03-23T01:40:33.694Z,49.00
2018-03-23T01:43:01.325Z,69.13
2018-03-23T01:45:29.105Z,54.03
2018-03-23T01:47:56.843Z,59.57
2018-03-23T01:50:24.559Z,57.40
2018-03-23T01:52:52.437Z,59.43
2018-03-23T01:55:20.034Z,53.03
2018-03-23T01:57:47.740Z,61.43
2018-03-23T02:00:15.875Z,70.83
2018-03-23T02:02:43.650Z,63.90
2018-03-23T02:05:11.429Z,60.47
2018-03-23T02:07:39.097Z,84.77
2018-03-23T02:10:06.884Z,60.20
2018-03-23T02:12:34.508Z,56.50
2018-03-23T02:15:02.300Z,72.97
2018-03-23T02:17:30.115Z,66.70
2018-03-23T02:19:57.895Z,66.50
2018-03-23T02:22:25.780Z,79.87
2018-03-23T02:24:53.620Z,52.20
2018-03-23T02:27:21.429Z,63.47
2018-03-23T02:29:49.312Z,64.07
2018-03-23T02:32:17.190Z,64.20
2018-03-23T02:34:44.969Z,64.00
2018-03-23T02:37:12.852Z,57.13
2018-03-23T02:39:40.522Z,64.50
2018-03-23T02:42:08.302Z,65.13
2018-03-23T02:44:36.154Z,71.40
2018-03-23T02:47:03.964Z,55.67
2018-03-23T02:49:31.629Z,52.37
2018-03-23T02:51:59.421Z,60.73
2018-03-23T02:54:27.143Z,62.03
2018-03-23T02:56:54.968Z,63.93
2018-03-23T02:59:22.646Z,76.40
2018-03-23T03:01:50.416Z,55.47
2018-03-23T03:04:18.117Z,56.17
2018-03-23T03:06:45.831Z,56.47
2018-03-23T03:09:13.654Z,70.50
2018-03-23T03:11:41.945Z,54.13
2018-03-23T03:14:09.675Z,59.07
2018-03-23T03:16:37.503Z,55.83
2018-03-23T03:19:05.276Z,52.17
2018-03-23T03:21:32.949Z,52.87
2018-03-23T03:24:00.730Z,41.27
2018-03-23T03:26:28.459Z,48.00
2018-03-23T03:28:56.075Z,53.33
2018-03-23T03:31:23.963Z,49.30
2018-03-23T03:33:51.634Z,71.67
2018-03-23T03:36:19.423Z,42.50
2018-03-23T03:38:47.140Z,50.30
2018-03-23T03:41:14.870Z,46.07
2018-03-23T03:43:42.752Z,56.97
2018-03-23T03:46:10.527Z,54.83
2018-03-23T03:48:38.305Z,62.50
2018-03-23T03:51:06.090Z,59.00
2018-03-23T03:53:33.747Z,50.53
2018-03-23T03:56:01.641Z,49.20
2018-03-23T03:58:29.311Z,48.93
2018-03-23T04:00:57.093Z,59.33
2018-03-23T04:03:24.869Z,53.67
2018-03-23T04:05:52.796Z,66.73
2018-03-23T04:08:20.528Z,68.60
2018-03-23T04:10:48.306Z,64.43
2018-03-23T04:13:16.082Z,72.97
2018-03-23T04:15:43.967Z,65.13
2018-03-23T04:18:11.745Z,78.87
2018-03-23T04:20:39.423Z,93.30
2018-03-23T04:23:07.138Z,75.33
2018-03-23T04:25:34.761Z,93.90
2018-03-23T04:28:02.897Z,80.40
2018-03-23T04:30:30.513Z,87.73
2018-03-23T04:32:58.305Z,109.17
2018-03-23T04:35:25.978Z,80.03
2018-03-23T04:37:53.656Z,113.30
2018-03-23T04:40:21.506Z,102.63
2018-03-23T04:42:49.314Z,111.87
2018-03-23T04:45:17.206Z,95.53
2018-03-23T04:47:44.930Z,110.53
2018-03-23T04:50:12.648Z,114.57
2018-03-23T04:52:40.837Z,135.40
2018-03-23T04:55:08.649Z,129.60
2018-03-23T04:57:36.496Z,137.83
2018-03-23T05:00:04.682Z,140.53
2018-03-23T05:02:32.455Z,153.93
2018-03-23T05:05:00.238Z,168.43
2018-03-23T05:07:28.120Z,159.67
2018-03-23T05:09:55.892Z,174.97
2018-03-23T05:12:23.575Z,161.90
2018-03-23T05:14:51.230Z,194.70
2018-03-23T05:17:18.980Z,140.57
2018-03-23T05:19:47.109Z,142.73
2018-03-23T05:22:14.873Z,170.97
2018-03-23T05:24:42.568Z,176.33
2018-03-23T05:27:10.336Z,177.37
2018-03-23T05:29:38.088Z,197.37
2018-03-23T05:32:05.784Z,207.97
2018-03-23T05:34:33.572Z,165.60
2018-03-23T05:37:01.661Z,288.67
2018-03-23T05:39:29.449Z,231.50
2018-03-23T05:41:57.215Z,251.63
2018-03-23T05:44:25.092Z,191.70
2018-03-23T05:46:52.830Z,255.33
2018-03-23T05:49:22.388Z,214.33
2018-03-23T05:51:50.528Z,186.37
2018-03-23T05:54:19.275Z,223.00
2018-03-23T05:56:47.052Z,212.07
2018-03-23T05:59:14.831Z,168.40
2018-03-23T06:01:42.512Z,211.20
2018-03-23T06:04:10.285Z,218.37
2018-03-23T06:06:37.965Z,208.80
2018-03-23T06:09:05.727Z,183.73
2018-03-23T06:11:33.517Z,195.70
2018-03-23T06:14:01.287Z,212.97
2018-03-23T06:16:29.175Z,191.73
2018-03-23T06:18:56.919Z,194.03
2018-03-23T06:21:24.686Z,189.13
2018-03-23T06:23:52.396Z,218.37
2018-03-23T06:26:20.143Z,194.80
2018-03-23T06:28:47.963Z,179.07
2018-03-23T06:31:15.641Z,173.87
2018-03-23T06:33:43.310Z,175.63
2018-03-23T06:36:11.194Z,188.23
2018-03-23T06:38:38.971Z,162.53
2018-03-23T06:41:06.751Z,189.43
2018-03-23T06:43:34.630Z,192.53
2018-03-23T06:46:02.409Z,173.17
2018-03-23T06:48:30.170Z,166.10
2018-03-23T06:50:57.964Z,174.20
2018-03-23T06:53:25.744Z,164.20
2018-03-23T06:55:53.469Z,167.50
2018-03-23T06:58:21.294Z,145.17
2018-03-23T07:00:48.970Z,152.90
2018-03-23T07:03:16.742Z,143.50
2018-03-23T07:05:44.630Z,156.30
2018-03-23T07:08:12.374Z,135.30
2018-03-23T07:10:40.188Z,136.23
2018-03-23T07:13:07.884Z,155.47
2018-03-23T07:15:35.652Z,141.17
2018-03-23T07:18:03.418Z,122.60
2018-03-23T07:20:31.195Z,133.77
2018-03-23T07:22:58.838Z,126.20
2018-03-23T07:25:26.530Z,151.10
2018-03-23T07:27:54.324Z,120.90
2018-03-23T07:30:21.997Z,121.33
2018-03-23T07:32:49.629Z,111.63
2018-03-23T07:35:17.760Z,114.10
2018-03-23T07:37:45.572Z,127.57
2018-03-23T07:40:13.418Z,133.67
2018-03-23T07:42:41.199Z,111.37
2018-03-23T07:45:08.871Z,98.13
2018-03-23T07:47:36.751Z,104.63
2018-03-23T07:50:04.428Z,109.13
2018-03-23T07:52:32.173Z,104.13
2018-03-23T07:54:59.984Z,103.77
2018-03-23T07:57:27.760Z,95.00
2018-03-23T07:59:55.501Z,96.97
2018-03-23T08:02:23.314Z,103.60
2018-03-23T08:04:51.093Z,95.83
2018-03-23T08:07:18.759Z,86.07
2018-03-23T08:09:46.436Z,83.30
2018-03-23T08:12:14.331Z,100.67
2018-03-23T08:14:41.992Z,91.63
2018-03-23T08:17:09.777Z,84.67
2018-03-23T08:19:37.448Z,73.03
2018-03-23T08:22:05.332Z,88.03
2018-03-23T08:24:33.005Z,75.67
2018-03-23T08:27:00.758Z,94.43
2018-03-23T08:29:28.524Z,98.63
2018-03-23T08:31:56.343Z,87.73
2018-03-23T08:34:24.121Z,88.50
2018-03-23T08:36:51.897Z,90.20
2018-03-23T08:39:19.678Z,90.30
2018-03-23T08:41:47.664Z,77.37
2018-03-23T08:44:15.588Z,95.67
2018-03-23T08:46:43.214Z,83.93
2018-03-23T08:49:10.994Z,85.07
2018-03-23T08:51:38.667Z,82.97
2018-03-23T08:54:06.385Z,84.17
2018-03-23T08:56:34.226Z,83.07
2018-03-23T08:59:01.973Z,97.30
2018-03-23T09:01:29.782Z,85.33
2018-03-23T09:03:57.458Z,98.63
2018-03-23T09:06:25.128Z,99.70
2018-03-23T09:08:52.909Z,104.80
2018-03-23T09:11:21.098Z,92.67
2018-03-23T09:13:48.822Z,81.17
2018-03-23T09:16:16.654Z,66.13
2018-03-23T09:18:44.533Z,59.23
2018-03-23T09:21:12.206Z,56.13
2018-03-23T09:23:39.938Z,55.97
2018-03-23T09:26:07.767Z,54.77
2018-03-23T09:28:35.444Z,56.20
2018-03-23T09:31:03.322Z,49.37
2018-03-23T09:33:31.059Z,59.00
2018-03-23T09:35:58.821Z,51.27
2018-03-23T09:38:26.656Z,49.40
2018-03-23T09:40:54.382Z,39.90
2018-03-23T09:43:22.209Z,43.43
2018-03-23T09:45:49.986Z,54.40
2018-03-23T09:48:17.765Z,44.30
2018-03-23T09:50:45.444Z,42.27
2018-03-23T09:53:13.115Z,44.73
2018-03-23T09:55:41.305Z,47.80
2018-03-23T09:58:09.082Z,53.70
2018-03-23T10:00:36.873Z,45.97
2018-03-23T10:03:04.936Z,51.07
2018-03-23T10:05:32.782Z,47.67
2018-03-23T10:08:00.407Z,50.77
2018-03-23T10:10:28.075Z,45.83
2018-03-23T10:12:55.749Z,44.97
2018-03-23T10:15:23.495Z,55.13
2018-03-23T10:17:51.191Z,55.13
2018-03-23T10:20:18.979Z,49.60
2018-03-23T10:22:46.759Z,46.47
2018-03-23T10:25:14.479Z,45.27
2018-03-23T10:27:42.317Z,41.93
2018-03-23T10:30:10.199Z,44.33
2018-03-23T10:32:37.806Z,44.23
2018-03-23T10:35:05.539Z,39.17
2018-03-23T10:37:33.227Z,36.60
2018-03-23T10:40:00.899Z,48.20
2018-03-23T10:42:28.781Z,45.43
2018-03-23T10:44:56.451Z,41.77
2018-03-23T10:47:24.264Z,41.70
2018-03-23T10:49:52.069Z,37.20
2018-03-23T10:52:19.891Z,37.60
2018-03-23T10:54:48.485Z,37.73
2018-03-23T10:57:16.266Z,27.57
2018-03-23T10:59:44.083Z,35.53
2018-03-23T11:05:15.644Z,32.87
2018-03-23T11:07:43.424Z,26.50
2018-03-23T11:10:11.151Z,24.33
2018-03-23T11:12:38.870Z,20.10
2018-03-23T11:15:06.612Z,27.40
2018-03-23T11:17:34.324Z,25.27
2018-03-23T11:20:02.169Z,24.90
2018-03-23T11:22:29.884Z,18.87
2018-03-23T11:24:57.558Z,39.53
2018-03-23T11:27:25.332Z,19.50
2018-03-23T11:29:53.123Z,25.10
2018-03-23T11:32:20.855Z,17.10
2018-03-23T11:34:48.775Z,21.50
2018-03-23T11:37:16.551Z,13.53
2018-03-23T11:39:44.328Z,21.60
2018-03-23T11:42:12.107Z,17.40
2018-03-23T11:44:40.296Z,21.00
2018-03-23T11:47:07.958Z,20.40
2018-03-23T11:49:35.717Z,24.03
2018-03-23T11:52:03.527Z,17.23
2018-03-23T11:54:31.304Z,22.90
2018-03-23T11:56:59.388Z,20.23
2018-03-23T11:59:27.171Z,20.60
2018-03-23T12:01:54.859Z,20.30
2018-03-23T12:04:22.617Z,23.27
2018-03-23T12:06:50.401Z,20.60
2018-03-23T12:09:18.178Z,23.30
2018-03-23T12:11:46.056Z,24.20
2018-03-23T12:14:13.820Z,22.33
2018-03-23T12:16:41.613Z,21.17
2018-03-23T12:19:09.278Z,20.17
2018-03-23T12:21:37.367Z,18.67
2018-03-23T12:24:05.153Z,17.70
2018-03-23T12:26:32.935Z,23.97
2018-03-23T12:29:00.614Z,23.67
2018-03-23T12:31:28.482Z,22.33
2018-03-23T12:33:56.214Z,29.43
2018-03-23T12:36:24.042Z,22.83
2018-03-23T12:38:51.923Z,19.47
2018-03-23T12:41:19.598Z,18.93
2018-03-23T12:43:47.371Z,22.10
2018-03-23T12:46:15.558Z,16.13
2018-03-23T12:48:43.228Z,19.40
2018-03-23T12:51:11.014Z,34.40
2018-03-23T12:53:38.894Z,20.03
2018-03-23T12:56:06.570Z,17.70
2018-03-23T12:58:34.347Z,20.43
2018-03-23T13:01:02.020Z,23.57
2018-03-23T13:03:29.803Z,21.03
2018-03-23T13:05:58.120Z,23.80
2018-03-23T13:08:25.868Z,17.87
2018-03-23T13:10:53.538Z,19.07
2018-03-23T13:13:21.425Z,23.00
2018-03-23T13:15:49.146Z,20.90
2018-03-23T13:18:16.759Z,22.60
2018-03-23T13:20:44.549Z,23.80
2018-03-23T13:23:12.214Z,23.27
2018-03-23T13:25:40.003Z,21.90
2018-03-23T13:28:07.781Z,20.27
2018-03-23T13:30:35.664Z,32.93
2018-03-23T13:33:03.417Z,21.00
2018-03-23T13:35:31.219Z,28.33
2018-03-23T13:37:58.999Z,25.50
2018-03-23T13:40:26.866Z,26.83
2018-03-23T13:42:54.539Z,24.03
2018-03-23T13:45:22.327Z,24.70
2018-03-23T13:47:50.106Z,24.33
2018-03-23T13:50:17.845Z,23.30
2018-03-23T13:52:45.663Z,23.30
2018-03-23T13:55:13.440Z,24.80
2018-03-23T13:57:41.217Z,28.63
2018-03-23T14:00:14.422Z,52.03
2018-03-23T14:02:42.204Z,177.73
2018-03-23T14:05:10.264Z,123.40
2018-03-23T14:07:37.975Z,25.03
2018-03-23T14:10:05.743Z,29.87
2018-03-23T14:12:33.415Z,29.50
2018-03-23T14:15:01.148Z,27.80
2018-03-23T14:17:28.971Z,24.37
2018-03-23T14:19:56.749Z,29.77
2018-03-23T14:22:24.474Z,29.43
2018-03-23T14:24:52.306Z,25.77
2018-03-23T14:27:20.083Z,23.40
2018-03-23T14:29:47.950Z,26.07
2018-03-23T14:32:15.688Z,24.03
2018-03-23T14:34:43.380Z,23.67
2018-03-23T14:37:11.084Z,28.97
2018-03-23T14:39:38.871Z,24.27
2018-03-23T14:42:06.648Z,25.73
2018-03-23T14:44:34.498Z,25.10
2018-03-23T14:47:02.127Z,27.90
2018-03-23T14:49:29.833Z,30.43
2018-03-23T14:51:57.552Z,24.60
2018-03-23T14:54:25.578Z,27.37
2018-03-23T14:56:53.416Z,25.80
2018-03-23T14:59:21.195Z,28.20
2018-03-23T15:01:49.384Z,24.00
2018-03-23T15:04:17.160Z,26.70
2018-03-23T15:06:44.897Z,26.07
2018-03-23T15:09:13.021Z,24.67
2018-03-23T15:11:40.802Z,23.67
2018-03-23T15:14:16.668Z,24.13
2018-03-23T15:16:44.374Z,26.07
2018-03-23T15:19:12.083Z,23.20
2018-03-23T15:21:39.869Z,21.90
2018-03-23T15:24:07.579Z,20.00
2018-03-23T15:26:35.240Z,25.83
2018-03-23T15:29:03.522Z,18.07
2018-03-23T15:31:31.234Z,25.80
2018-03-23T15:33:58.879Z,21.40
2018-03-23T15:36:27.080Z,28.20
2018-03-23T15:38:54.754Z,32.70
2018-03-23T15:41:22.556Z,24.60
2018-03-23T15:43:50.307Z,30.03
2018-03-23T15:46:18.197Z,26.97
2018-03-23T15:48:45.862Z,32.17
2018-03-23T15:51:13.743Z,25.47
2018-03-23T15:53:41.524Z,25.63
2018-03-23T15:56:09.301Z,27.73
2018-03-23T15:58:36.972Z,24.43
2018-03-23T16:01:04.812Z,31.00
2018-03-23T16:03:32.536Z,23.27
2018-03-23T16:06:00.646Z,26.73
2018-03-23T16:08:28.395Z,25.97
2018-03-23T16:10:56.127Z,29.30
2018-03-23T16:13:23.950Z,86.40
2018-03-23T16:15:51.729Z,113.73
2018-03-23T16:18:19.451Z,30.50
2018-03-23T16:20:47.184Z,66.97
2018-03-23T16:23:14.961Z,26.20
2018-03-23T16:25:42.736Z,36.47
2018-03-23T16:28:11.030Z,30.93
2018-03-23T16:30:38.810Z,27.87
2018-03-23T16:33:06.527Z,34.17
2018-03-23T16:35:34.571Z,31.60
2018-03-23T16:38:02.595Z,24.00
2018-03-23T16:40:30.328Z,35.00
2018-03-23T16:42:58.148Z,36.43
2018-03-23T16:45:25.884Z,24.57
2018-03-23T16:47:53.662Z,33.37
2018-03-23T16:50:21.397Z,26.60
2018-03-23T16:52:49.218Z,32.20
2018-03-23T16:55:17.003Z,28.73
2018-03-23T16:57:44.775Z,32.50
2018-03-23T17:00:12.586Z,35.80
2018-03-23T17:02:40.326Z,31.40
2018-03-23T17:05:08.108Z,33.77
2018-03-23T17:07:36.105Z,32.23
2018-03-23T17:10:04.052Z,42.20
2018-03-23T17:12:34.013Z,28.60
2018-03-23T17:15:03.910Z,27.70
2018-03-23T17:17:33.887Z,33.73
2018-03-23T17:20:01.743Z,33.73
2018-03-23T17:22:29.517Z,36.60
2018-03-23T17:24:57.294Z,28.73
2018-03-23T17:27:25.178Z,39.13
2018-03-23T17:29:52.959Z,39.40
2018-03-23T17:32:20.706Z,35.47
2018-03-23T17:34:48.515Z,32.93
2018-03-23T17:37:16.333Z,33.47
2018-03-23T17:39:44.066Z,41.30
2018-03-23T17:42:11.727Z,47.67
2018-03-23T17:44:39.507Z,56.00
2018-03-23T17:47:07.400Z,36.80
2018-03-23T17:49:35.177Z,51.87
2018-03-23T17:52:02.956Z,43.60
2018-03-23T17:54:30.833Z,32.63
2018-03-23T17:56:58.614Z,36.57
2018-03-23T17:59:27.449Z,40.70
2018-03-23T18:01:56.226Z,45.37
2018-03-23T18:04:26.764Z,40.53
2018-03-23T18:06:54.638Z,35.83
2018-03-23T18:09:22.319Z,44.10
2018-03-23T18:11:50.407Z,43.60
2018-03-23T18:14:18.180Z,39.33
2018-03-23T18:16:45.843Z,38.73
2018-03-23T18:19:14.452Z,40.27
2018-03-23T18:21:42.207Z,40.23
2018-03-23T18:24:09.905Z,49.10
2018-03-23T18:26:37.579Z,44.50
2018-03-23T18:29:05.230Z,48.17
2018-03-23T18:31:33.043Z,49.23
2018-03-23T18:34:00.740Z,49.17
2018-03-23T18:36:28.384Z,46.10
2018-03-23T18:38:56.270Z,48.33
2018-03-23T18:41:23.987Z,52.67
2018-03-23T18:43:51.619Z,51.53
2018-03-23T18:46:19.497Z,52.07
2018-03-23T18:48:47.276Z,48.20
2018-03-23T18:51:15.054Z,42.63
2018-03-23T18:53:42.833Z,44.53
2018-03-23T18:56:10.566Z,44.60
2018-03-23T18:58:38.229Z,51.13
2018-03-23T19:01:06.317Z,43.80
2018-03-23T19:03:34.116Z,47.77
2018-03-23T19:06:01.699Z,48.67
2018-03-23T19:08:29.808Z,43.43
2018-03-23T19:10:57.451Z,44.70
2018-03-23T19:13:25.142Z,46.83
2018-03-23T19:15:52.819Z,49.40
2018-03-23T19:18:20.493Z,46.93
2018-03-23T19:20:48.182Z,52.63
2018-03-23T19:23:15.963Z,49.37
2018-03-23T19:25:43.746Z,43.80
2018-03-23T19:28:13.482Z,45.13
2018-03-23T19:30:41.446Z,50.70
2018-03-23T19:33:09.189Z,49.80
2018-03-23T19:35:37.001Z,60.10
2018-03-23T19:38:04.782Z,57.30
2018-03-23T19:40:32.664Z,60.10
2018-03-23T19:43:00.444Z,55.80
2018-03-23T19:45:28.214Z,62.53
2018-03-23T19:47:55.995Z,58.93
2018-03-23T19:50:23.872Z,61.50
2018-03-23T19:52:51.720Z,56.30
2018-03-23T19:55:19.490Z,57.00
2018-03-23T19:57:47.206Z,64.50
2018-03-23T20:00:14.884Z,60.93
2018-03-23T20:02:42.706Z,57.10
2018-03-23T20:05:10.543Z,62.67
2018-03-23T20:07:38.218Z,69.83
2018-03-23T20:10:06.061Z,69.30
2018-03-23T20:12:33.979Z,57.77
2018-03-23T20:15:01.756Z,65.87
2018-03-23T20:17:35.066Z,76.27
2018-03-23T20:20:03.764Z,62.17
2018-03-23T20:22:31.754Z,59.90
2018-03-23T20:24:59.530Z,70.03
2018-03-23T20:27:32.938Z,66.40
2018-03-23T20:30:00.671Z,57.33
2018-03-23T20:32:32.398Z,58.80
2018-03-23T20:35:00.048Z,57.80
2018-03-23T20:37:27.834Z,68.83
2018-03-23T20:39:55.718Z,69.07
2018-03-23T20:42:23.414Z,63.80
2018-03-23T20:44:51.582Z,62.00
2018-03-23T20:47:19.239Z,59.83
2018-03-23T20:49:47.038Z,79.00
2018-03-23T20:52:15.226Z,75.63
2018-03-23T20:54:42.993Z,73.20
2018-03-23T20:57:10.787Z,64.93
2018-03-23T20:59:38.657Z,78.10
2018-03-23T21:02:06.748Z,66.40
2018-03-23T21:04:34.420Z,60.60
2018-03-23T21:07:02.143Z,65.67
2018-03-23T21:09:29.870Z,72.63
2018-03-23T21:11:57.649Z,62.27
2018-03-23T21:14:25.537Z,63.23
2018-03-23T21:16:53.258Z,63.57
2018-03-23T21:19:21.092Z,67.67
2018-03-23T21:21:48.866Z,67.10
2018-03-23T21:24:16.655Z,63.93
2018-03-23T21:26:44.420Z,55.57
2018-03-23T21:29:12.168Z,70.50
2018-03-23T21:31:39.977Z,62.03
2018-03-23T21:34:07.882Z,62.47
2018-03-23T21:36:36.045Z,71.77
2018-03-23T21:39:03.896Z,71.23
2018-03-23T21:41:31.595Z,72.40
2018-03-23T21:43:59.477Z,62.00
2018-03-23T21:46:27.230Z,74.87
2018-03-23T21:48:54.931Z,73.37
2018-03-23T21:51:22.605Z,75.33
2018-03-23T21:53:50.363Z,67.00
2018-03-23T21:56:18.369Z,59.97
2018-03-23T21:58:46.144Z,67.17
2018-03-23T22:01:13.924Z,64.67
2018-03-23T22:03:41.705Z,72.80
2018-03-23T22:06:09.476Z,75.97
2018-03-23T22:08:37.137Z,67.80
2018-03-23T22:11:04.894Z,69.80
2018-03-23T22:13:32.712Z,65.10
2018-03-23T22:16:00.591Z,64.97
2018-03-23T22:18:28.261Z,71.93
2018-03-23T22:20:56.042Z,63.80
2018-03-23T22:23:23.822Z,71.30
2018-03-23T22:25:51.500Z,70.37
2018-03-23T22:28:19.275Z,71.17
2018-03-23T22:30:47.005Z,73.60
2018-03-23T22:33:14.720Z,70.47
2018-03-23T22:35:42.389Z,68.50
2018-03-23T22:38:10.066Z,69.53
2018-03-23T22:40:38.267Z,61.33
2018-03-23T22:43:05.936Z,62.00
2018-03-23T22:45:33.721Z,65.90
2018-03-23T22:48:01.497Z,73.70
2018-03-23T22:50:29.174Z,62.50
2018-03-23T22:52:56.842Z,65.27
2018-03-23T22:55:24.525Z,66.77
2018-03-23T22:57:52.286Z,66.40
2018-03-23T23:00:19.970Z,73.43
2018-03-23T23:02:47.719Z,65.17
2018-03-23T23:05:15.535Z,65.37
2018-03-23T23:07:43.312Z,61.70
2018-03-23T23:10:10.987Z,66.60
2018-03-23T23:12:38.867Z,66.47
2018-03-23T23:15:06.646Z,68.30
2018-03-23T23:17:34.424Z,70.43
2018-03-23T23:20:02.203Z,71.77
2018-03-23T23:22:30.083Z,76.80
2018-03-23T23:24:57.860Z,64.67
2018-03-23T23:27:25.643Z,70.83
2018-03-23T23:29:53.929Z,71.40
2018-03-23T23:32:21.600Z,89.17
2018-03-23T23:34:49.278Z,70.97
2018-03-23T23:37:17.056Z,73.43
2018-03-23T23:39:44.792Z,75.73
2018-03-23T23:42:12.505Z,70.60
2018-03-23T23:44:40.389Z,66.77
2018-03-23T23:47:08.165Z,56.80
2018-03-23T23:49:35.908Z,71.27
2018-03-23T23:52:03.611Z,60.30
2018-03-23T23:54:31.399Z,73.13
2018-03-23T23:56:59.161Z,80.27
2018-03-23T23:59:26.900Z,66.87
